Time;durP1;ratioP1;P1;durP2;ratioP2;P2;SDS_P1;SDS_P2;PMS_P1;PMS_P2;Temp;Humidity;BMP_temperature;BMP_pressure;BME280_temperature;BME280_humidity;BME280_pressure;Samples;Min_cycle;Max_cycle;Signal;HPM_P1;HPM_P2
2022/12/14 00:02:32;;;;;;;1.15;0.73;;;26.40;43.60;;;;;;5006505;28;20189;-40
2022/12/14 00:05:02;;;;;;;1.70;1.00;;;26.40;43.60;;;;;;5009903;28;20256;-39
2022/12/14 00:07:33;;;;;;;1.10;0.93;;;26.50;43.70;;;;;;5009738;28;20185;-39
2022/12/14 00:10:04;;;;;;;1.15;0.70;;;26.50;43.70;;;;;;5009755;28;20767;-39
2022/12/14 00:12:35;;;;;;;1.92;1.00;;;26.60;43.50;;;;;;5009597;28;20193;-39
2022/12/14 00:15:06;;;;;;;1.33;0.90;;;26.60;43.60;;;;;;5010232;28;20201;-39
2022/12/14 00:17:41;;;;;;;2.63;0.90;;;26.70;44.00;;;;;;5009706;28;20197;-39
2022/12/14 00:20:12;;;;;;;2.10;0.98;;;26.70;44.10;;;;;;5011939;28;20200;-39
2022/12/14 00:22:43;;;;;;;1.42;0.88;;;26.80;44.20;;;;;;5020835;28;20193;-40
2022/12/14 00:25:14;;;;;;;1.58;0.73;;;26.80;44.40;;;;;;5009663;28;20225;-39
2022/12/14 00:27:46;;;;;;;1.98;0.90;;;26.90;44.60;;;;;;5010435;28;20185;-41
2022/12/14 00:30:18;;;;;;;2.88;0.93;;;27.00;44.80;;;;;;5009074;28;20645;-41
2022/12/14 00:32:50;;;;;;;1.42;0.95;;;27.00;44.60;;;;;;5011777;28;20204;-40
2022/12/14 00:35:21;;;;;;;1.75;0.90;;;27.00;44.50;;;;;;5010522;28;20248;-40
2022/12/14 00:37:52;;;;;;;1.83;0.90;;;27.10;44.20;;;;;;5013476;28;20195;-40
2022/12/14 00:40:23;;;;;;;2.25;0.90;;;27.20;43.70;;;;;;5013197;28;20193;-40
2022/12/14 00:42:54;;;;;;;2.90;1.00;;;27.20;43.40;;;;;;5012844;28;20192;-39
2022/12/14 00:45:24;;;;;;;2.45;0.80;;;27.30;43.20;;;;;;5013910;28;20700;-40
2022/12/14 00:47:57;;;;;;;1.73;1.10;;;27.30;43.40;;;;;;5013626;28;20193;-41
2022/12/14 00:50:27;;;;;;;2.22;0.70;;;27.30;43.30;;;;;;5013508;28;20200;-39
2022/12/14 00:52:58;;;;;;;1.55;0.80;;;27.40;43.60;;;;;;5018307;28;20204;-40
2022/12/14 00:55:29;;;;;;;1.73;0.80;;;27.40;43.70;;;;;;5012864;28;20225;-38
2022/12/14 00:58:00;;;;;;;1.42;0.73;;;27.40;43.80;;;;;;5012889;28;20201;-40
2022/12/14 01:00:31;;;;;;;0.95;0.65;;;27.50;44.00;;;;;;5012566;28;20211;-45
2022/12/14 01:03:04;;;;;;;2.65;1.00;;;27.50;43.80;;;;;;5006247;28;20193;-39
2022/12/14 01:05:36;;;;;;;2.70;1.05;;;27.60;43.70;;;;;;5012963;28;20238;-41
2022/12/14 01:08:08;;;;;;;2.63;0.90;;;27.60;43.70;;;;;;5012676;28;20201;-39
2022/12/14 01:10:41;;;;;;;1.85;0.88;;;27.60;43.80;;;;;;5013318;28;20235;-43
2022/12/14 01:13:13;;;;;;;2.55;1.17;;;27.60;43.60;;;;;;5013007;28;20193;-39
2022/12/14 01:15:44;;;;;;;2.30;1.00;;;27.70;44.40;;;;;;5011936;28;20700;-41
2022/12/14 01:18:16;;;;;;;1.55;1.00;;;27.70;43.90;;;;;;5012212;28;20223;-39
2022/12/14 01:20:47;;;;;;;2.08;0.98;;;27.70;43.80;;;;;;5012201;28;20212;-42
2022/12/14 01:23:18;;;;;;;2.30;0.95;;;27.70;43.70;;;;;;5012577;28;20223;-39
2022/12/14 01:25:49;;;;;;;1.40;0.98;;;27.70;43.60;;;;;;5011770;28;20251;-40
2022/12/14 01:28:21;;;;;;;1.45;0.80;;;27.70;43.70;;;;;;5011927;28;20203;-40
2022/12/14 01:30:52;;;;;;;1.48;0.98;;;27.70;43.60;;;;;;5012811;28;20219;-42
2022/12/14 01:33:24;;;;;;;1.80;0.80;;;27.80;43.40;;;;;;5012575;28;20217;-40
2022/12/14 01:35:55;;;;;;;1.77;0.80;;;27.80;43.40;;;;;;5012676;28;20740;-39
2022/12/14 01:38:26;;;;;;;3.30;0.90;;;27.80;43.50;;;;;;5012145;28;20193;-39
2022/12/14 01:41:00;;;;;;;1.80;0.80;;;27.80;43.90;;;;;;5011343;28;20207;-39
2022/12/14 01:43:49;;;;;;;1.42;0.60;;;27.90;43.60;;;;;;5020606;28;20211;-39
2022/12/14 01:46:25;;;;;;;2.30;0.98;;;27.90;43.60;;;;;;5017419;28;20251;-39
2022/12/14 01:49:01;;;;;;;2.97;0.80;;;27.90;43.80;;;;;;5018520;28;20199;-41
2022/12/14 01:51:33;;;;;;;3.42;0.90;;;27.90;43.70;;;;;;5019748;28;20185;-41
2022/12/14 01:54:06;;;;;;;2.08;0.88;;;27.90;43.70;;;;;;5016630;28;20192;-39
2022/12/14 01:56:40;;;;;;;2.65;0.98;;;27.90;43.40;;;;;;5021612;28;20204;-40
2022/12/14 01:59:14;;;;;;;1.52;1.00;;;27.90;43.50;;;;;;5012889;28;20208;-42
2022/12/14 02:01:47;;;;;;;3.33;1.00;;;28.00;43.40;;;;;;5010176;28;20188;-39
2022/12/14 02:04:21;;;;;;;1.33;0.85;;;28.00;43.50;;;;;;5012084;28;20735;-41
2022/12/14 02:06:53;;;;;;;2.35;0.93;;;28.00;43.60;;;;;;5012068;28;20601;-39
2022/12/14 02:09:28;;;;;;;2.35;0.98;;;28.00;43.50;;;;;;5011518;28;20208;-40
2022/12/14 02:12:04;;;;;;;1.95;1.00;;;28.00;43.40;;;;;;5011643;28;20203;-39
2022/12/14 02:14:34;;;;;;;4.32;1.23;;;28.10;43.50;;;;;;5011888;28;20207;-39
2022/12/14 02:17:08;;;;;;;2.15;0.95;;;28.10;43.70;;;;;;5011361;28;20216;-39
2022/12/14 02:19:42;;;;;;;1.52;1.13;;;28.10;43.70;;;;;;5012034;28;20197;-38
2022/12/14 02:22:45;;;;;;;2.75;1.10;;;28.10;43.80;;;;;;5011188;28;20203;-39
2022/12/14 02:25:42;;;;;;;2.00;1.00;;;28.10;43.80;;;;;;5009450;28;20195;-38
2022/12/14 02:28:33;;;;;;;2.42;0.90;;;28.20;44.00;;;;;;5011718;28;20192;-38
2022/12/14 02:31:15;;;;;;;3.65;1.10;;;28.10;43.80;;;;;;5012385;28;20204;-39
2022/12/14 02:33:54;;;;;;;2.97;1.30;;;28.20;43.60;;;;;;5015879;28;20207;-39
2022/12/14 02:36:32;;;;;;;2.28;1.17;;;28.20;43.30;;;;;;5011052;28;20220;-39
2022/12/14 02:39:12;;;;;;;1.95;1.15;;;28.20;43.40;;;;;;5010417;28;20207;-39
2022/12/14 02:41:53;;;;;;;2.90;0.90;;;28.20;43.30;;;;;;5010870;28;20200;-39
2022/12/14 02:44:35;;;;;;;1.20;0.90;;;28.20;43.60;;;;;;5010807;28;20283;-38
2022/12/14 02:47:16;;;;;;;3.17;1.42;;;28.20;43.60;;;;;;5011055;28;20629;-39
2022/12/14 02:50:03;;;;;;;5.28;1.42;;;28.20;43.60;;;;;;5010382;28;20189;-38
2022/12/14 02:52:42;;;;;;;3.83;1.35;;;28.20;43.60;;;;;;4998995;28;20223;-39
2022/12/14 02:55:20;;;;;;;1.80;1.10;;;28.20;43.70;;;;;;5010838;28;20193;-39
2022/12/14 02:57:55;;;;;;;3.85;1.50;;;28.20;43.80;;;;;;5010963;28;20193;-39
2022/12/14 03:00:27;;;;;;;1.98;1.20;;;28.30;43.50;;;;;;5019741;28;20584;-39
2022/12/14 03:03:01;;;;;;;2.38;1.05;;;28.30;43.80;;;;;;5017051;28;20201;-40
2022/12/14 03:05:31;;;;;;;4.85;1.20;;;28.30;43.60;;;;;;5010716;28;20240;-38
2022/12/14 03:08:04;;;;;;;2.72;1.20;;;28.30;43.40;;;;;;5009764;28;20199;-39
2022/12/14 03:10:40;;;;;;;3.38;1.10;;;28.30;43.40;;;;;;5011221;28;20205;-41
2022/12/14 03:13:19;;;;;;;2.22;1.23;;;28.30;43.60;;;;;;5010108;28;20193;-40
2022/12/14 03:15:57;;;;;;;2.38;1.00;;;28.30;43.60;;;;;;5011217;28;20216;-39
2022/12/14 03:18:34;;;;;;;1.73;1.10;;;28.30;43.60;;;;;;5010808;28;20189;-39
2022/12/14 03:21:07;;;;;;;2.15;1.13;;;28.30;43.80;;;;;;5010169;28;20200;-39
2022/12/14 03:23:40;;;;;;;2.58;0.98;;;28.30;43.90;;;;;;5009325;28;20315;-39
2022/12/14 03:26:18;;;;;;;1.65;1.10;;;28.30;44.50;;;;;;5010440;28;20229;-41
2022/12/14 03:28:52;;;;;;;1.30;1.00;;;28.30;43.80;;;;;;5009806;28;20196;-40
2022/12/14 03:31:27;;;;;;;1.33;1.00;;;28.30;43.80;;;;;;5010696;28;20684;-40
2022/12/14 03:34:02;;;;;;;2.17;1.10;;;28.40;43.70;;;;;;5009537;28;20200;-43
2022/12/14 03:36:42;;;;;;;2.75;1.15;;;28.40;43.60;;;;;;5010517;28;20231;-39
2022/12/14 03:39:16;;;;;;;3.05;1.00;;;28.40;43.50;;;;;;5009846;28;20244;-42
2022/12/14 03:41:52;;;;;;;1.40;0.95;;;28.50;43.50;;;;;;5010681;28;20223;-39
2022/12/14 03:44:32;;;;;;;2.50;1.20;;;28.50;43.20;;;;;;5010971;28;20205;-44
2022/12/14 03:47:14;;;;;;;2.33;0.95;;;28.50;42.90;;;;;;5010076;28;20263;-39
2022/12/14 03:49:58;;;;;;;3.40;1.05;;;28.50;42.90;;;;;;5010906;28;20205;-39
2022/12/14 03:52:36;;;;;;;1.77;0.93;;;28.50;42.80;;;;;;5010503;28;20211;-38
2022/12/14 03:55:21;;;;;;;2.30;0.88;;;28.50;42.60;;;;;;5010735;28;20382;-42
2022/12/14 03:58:19;;;;;;;2.35;1.10;;;28.50;42.70;;;;;;5010406;28;20415;-39
2022/12/14 04:00:59;;;;;;;1.98;0.95;;;28.50;42.80;;;;;;5010849;28;20649;-40
2022/12/14 04:03:42;;;;;;;2.65;1.00;;;28.50;42.80;;;;;;5003475;28;20208;-39
2022/12/14 04:06:21;;;;;;;1.23;0.98;;;28.60;42.70;;;;;;4989892;28;20229;-40
2022/12/14 04:08:57;;;;;;;2.40;1.05;;;28.60;42.70;;;;;;5002395;28;20193;-40
2022/12/14 04:20:08;;;;;;;4.30;1.20;;;28.60;42.30;;;;;;5013917;28;20713;-38
2022/12/14 04:22:44;;;;;;;1.95;0.98;;;28.70;41.80;;;;;;5001900;28;20201;-39
2022/12/14 04:29:54;;;;;;;2.58;1.02;;;28.60;42.10;;;;;;5016167;28;20298;-39
2022/12/14 04:31:04;;;;;;;2.45;1.00;;;28.70;41.90;;;;;;5014103;28;20603;-39
2022/12/14 04:33:51;;;;;;;1.63;1.00;;;28.70;42.20;;;;;;5014360;28;20610;-40
2022/12/14 04:36:26;;;;;;;2.13;0.90;;;28.70;42.20;;;;;;5013072;28;20223;-39
2022/12/14 04:39:03;;;;;;;2.38;1.00;;;28.70;42.20;;;;;;5013579;28;20586;-39
2022/12/14 04:41:37;;;;;;;2.20;1.00;;;28.70;42.30;;;;;;5013305;28;20192;-38
2022/12/14 04:44:13;;;;;;;2.10;1.10;;;28.70;42.30;;;;;;5012851;28;20252;-39
2022/12/14 04:46:45;;;;;;;2.47;1.15;;;28.80;42.30;;;;;;5012324;28;20224;-38
2022/12/14 04:49:24;;;;;;;3.08;0.98;;;28.80;42.10;;;;;;5013887;28;20200;-39
2022/12/14 04:52:00;;;;;;;2.25;1.08;;;28.80;42.10;;;;;;5013609;28;20220;-40
2022/12/14 04:54:40;;;;;;;4.40;1.30;;;28.80;42.00;;;;;;5012936;28;20636;-39
2022/12/14 04:57:14;;;;;;;2.95;1.05;;;28.80;42.20;;;;;;5012814;28;20235;-39
2022/12/14 04:59:46;;;;;;;3.88;0.90;;;28.80;41.00;;;;;;5015128;28;20203;-39
2022/12/14 05:02:23;;;;;;;3.13;1.15;;;28.80;40.60;;;;;;5013476;28;20192;-38
2022/12/14 05:05:00;;;;;;;2.25;1.00;;;28.80;41.40;;;;;;5012790;28;20190;-38
2022/12/14 05:07:41;;;;;;;1.63;0.90;;;28.80;40.80;;;;;;5031205;28;20227;-38
2022/12/14 05:10:18;;;;;;;2.13;0.90;;;28.80;41.10;;;;;;4993352;28;20198;-39
2022/12/14 05:12:57;;;;;;;3.03;1.10;;;28.80;41.30;;;;;;4992722;28;20204;-38
2022/12/14 05:15:32;;;;;;;1.80;0.70;;;28.80;41.50;;;;;;4992556;28;20213;-39
2022/12/14 05:18:05;;;;;;;3.30;1.13;;;28.80;41.50;;;;;;4994941;28;20201;-38
2022/12/14 05:20:36;;;;;;;1.50;1.00;;;28.90;41.60;;;;;;5012518;28;20208;-38
2022/12/14 05:23:07;;;;;;;1.50;1.00;;;28.90;41.60;;;;;;5011239;28;20249;-38
2022/12/14 05:25:40;;;;;;;1.88;0.90;;;28.90;41.70;;;;;;5012388;28;20236;-38
2022/12/14 05:28:11;;;;;;;2.63;1.13;;;28.90;41.20;;;;;;5012395;28;20243;-38
2022/12/14 05:30:42;;;;;;;2.13;1.00;;;28.80;40.90;;;;;;5012721;28;20215;-39
2022/12/14 05:33:18;;;;;;;2.15;1.17;;;28.80;40.60;;;;;;5012719;28;21282;-38
2022/12/14 05:35:48;;;;;;;3.08;0.80;;;28.80;40.30;;;;;;5012297;28;20220;-40
2022/12/14 05:38:19;;;;;;;2.10;0.90;;;28.80;40.20;;;;;;5011951;28;20189;-39
2022/12/14 05:40:52;;;;;;;3.20;1.10;;;28.80;40.10;;;;;;5012697;28;20555;-38
2022/12/14 05:43:22;;;;;;;2.88;1.10;;;28.80;40.20;;;;;;5012324;28;20550;-38
2022/12/14 05:45:59;;;;;;;2.22;0.98;;;28.80;40.40;;;;;;5012751;28;20220;-39
2022/12/14 05:48:30;;;;;;;3.13;1.10;;;28.70;40.50;;;;;;5012366;28;20196;-38
2022/12/14 05:51:08;;;;;;;4.82;1.10;;;28.70;40.80;;;;;;5012085;28;20204;-38
2022/12/14 05:53:40;;;;;;;2.75;1.23;;;28.70;40.70;;;;;;5012274;28;20243;-41
2022/12/14 05:56:13;;;;;;;3.53;1.48;;;28.70;40.80;;;;;;5011972;28;20221;-38
2022/12/14 05:58:44;;;;;;;2.33;1.10;;;28.70;40.70;;;;;;5012200;28;20558;-38
2022/12/14 06:01:15;;;;;;;2.58;1.10;;;28.70;40.70;;;;;;5011736;28;20201;-39
2022/12/14 06:03:46;;;;;;;2.65;1.02;;;28.80;40.80;;;;;;4997840;28;20200;-38
2022/12/14 06:06:17;;;;;;;2.67;1.27;;;28.70;40.70;;;;;;5011181;28;20581;-39
2022/12/14 06:08:48;;;;;;;2.47;1.42;;;28.80;40.70;;;;;;5011984;28;20276;-39
2022/12/14 06:11:23;;;;;;;3.35;1.20;;;28.80;40.70;;;;;;5010943;28;20201;-38
2022/12/14 06:13:54;;;;;;;3.28;1.63;;;28.80;40.70;;;;;;5011528;28;20208;-42
2022/12/14 06:16:26;;;;;;;3.45;1.35;;;28.80;40.80;;;;;;5011463;28;20221;-38
2022/12/14 06:18:58;;;;;;;3.08;1.20;;;28.80;40.80;;;;;;5012144;28;20228;-39
2022/12/14 06:21:30;;;;;;;3.47;1.02;;;28.80;40.80;;;;;;5011926;28;20209;-40
2022/12/14 06:24:01;;;;;;;2.70;1.30;;;28.80;40.90;;;;;;5011792;28;20216;-38
2022/12/14 06:26:35;;;;;;;2.60;1.13;;;28.80;40.90;;;;;;5011436;28;20221;-39
2022/12/14 06:29:06;;;;;;;2.15;1.30;;;28.80;41.00;;;;;;5011532;28;20196;-40
2022/12/14 06:31:37;;;;;;;2.55;1.25;;;28.80;41.10;;;;;;5011145;28;20192;-39
2022/12/14 06:34:07;;;;;;;3.17;1.20;;;28.80;41.10;;;;;;5010689;28;20204;-38
2022/12/14 06:36:40;;;;;;;2.42;1.10;;;28.80;41.20;;;;;;5013775;28;20221;-38
2022/12/14 06:39:13;;;;;;;2.47;1.27;;;28.80;41.20;;;;;;5010982;28;20201;-37
2022/12/14 06:41:46;;;;;;;2.25;1.13;;;28.80;41.30;;;;;;5011087;28;20197;-38
2022/12/14 06:44:17;;;;;;;2.17;1.08;;;28.80;41.30;;;;;;5011522;28;20203;-39
2022/12/14 06:46:47;;;;;;;3.97;1.60;;;28.80;41.40;;;;;;5011823;28;20229;-38
2022/12/14 06:49:18;;;;;;;2.15;1.23;;;28.80;41.50;;;;;;5011631;28;20205;-38
2022/12/14 06:51:49;;;;;;;2.92;1.50;;;28.80;41.50;;;;;;5011464;28;20641;-38
2022/12/14 06:54:20;;;;;;;2.80;1.45;;;28.80;41.60;;;;;;5011343;28;20212;-39
2022/12/14 06:56:53;;;;;;;2.17;1.42;;;28.80;41.60;;;;;;5014038;28;20223;-40
2022/12/14 06:59:24;;;;;;;3.53;1.42;;;28.80;41.70;;;;;;5011855;28;20200;-38
2022/12/14 07:01:54;;;;;;;2.92;1.27;;;28.80;41.80;;;;;;5010911;28;20197;-38
2022/12/14 07:04:25;;;;;;;2.10;1.30;;;28.80;41.90;;;;;;5010943;28;20196;-38
2022/12/14 07:06:56;;;;;;;2.63;1.20;;;28.80;42.00;;;;;;5011327;28;20239;-38
2022/12/14 07:09:26;;;;;;;2.45;1.40;;;28.80;42.20;;;;;;5011234;28;20248;-39
2022/12/14 07:11:59;;;;;;;2.47;1.30;;;28.80;42.20;;;;;;5010973;28;20201;-41
2022/12/14 07:14:31;;;;;;;3.53;1.38;;;28.80;42.20;;;;;;5011168;28;20640;-38
2022/12/14 07:17:02;;;;;;;2.00;1.27;;;28.80;42.30;;;;;;5011405;28;20236;-40
2022/12/14 07:19:33;;;;;;;2.10;1.25;;;28.80;42.40;;;;;;5011475;28;20649;-38
2022/12/14 07:22:04;;;;;;;1.48;1.15;;;28.70;42.30;;;;;;5010683;28;20212;-38
2022/12/14 07:24:34;;;;;;;2.70;1.52;;;28.70;42.30;;;;;;5010946;28;20204;-38
2022/12/14 07:27:07;;;;;;;3.33;1.20;;;28.70;42.30;;;;;;5011143;28;20233;-38
2022/12/14 07:29:38;;;;;;;2.15;1.25;;;28.70;42.30;;;;;;5011185;28;20205;-42
2022/12/14 07:32:09;;;;;;;2.45;1.50;;;28.70;42.40;;;;;;5011258;28;20200;-38
2022/12/14 07:34:39;;;;;;;1.48;1.27;;;28.70;42.50;;;;;;5011036;28;20212;-41
2022/12/14 07:37:10;;;;;;;2.28;1.33;;;28.60;42.50;;;;;;5010971;28;20216;-37
2022/12/14 07:39:41;;;;;;;1.83;1.30;;;28.70;42.60;;;;;;5011457;28;20193;-38
2022/12/14 07:42:13;;;;;;;2.08;1.23;;;28.60;42.60;;;;;;5011043;28;20204;-40
2022/12/14 07:44:44;;;;;;;3.03;1.38;;;28.60;42.70;;;;;;5011041;28;20615;-38
2022/12/14 07:47:15;;;;;;;2.88;1.67;;;28.60;42.80;;;;;;5013870;28;20229;-41
2022/12/14 07:49:46;;;;;;;2.60;1.60;;;28.60;43.50;;;;;;5015205;28;20200;-38
2022/12/14 07:52:16;;;;;;;2.10;1.33;;;28.60;43.00;;;;;;5014497;28;20200;-38
2022/12/14 07:54:47;;;;;;;2.05;1.30;;;28.50;42.90;;;;;;5014302;28;20661;-38
2022/12/14 07:57:20;;;;;;;2.65;1.42;;;28.50;42.90;;;;;;5014554;28;20232;-39
2022/12/14 07:59:51;;;;;;;1.52;1.25;;;28.50;42.90;;;;;;5014337;28;20200;-43
2022/12/14 08:02:21;;;;;;;1.80;1.42;;;28.50;42.90;;;;;;5014417;28;20201;-38
2022/12/14 08:04:53;;;;;;;2.10;1.60;;;28.50;43.10;;;;;;5014641;28;20205;-41
2022/12/14 08:07:23;;;;;;;2.53;1.42;;;28.40;43.20;;;;;;5014551;28;20235;-38
2022/12/14 08:09:54;;;;;;;2.83;1.60;;;28.40;43.30;;;;;;5014721;28;20215;-39
2022/12/14 08:12:27;;;;;;;3.22;1.52;;;28.40;43.40;;;;;;5014618;28;20563;-38
2022/12/14 08:14:57;;;;;;;2.60;1.42;;;28.30;43.40;;;;;;5009952;28;20193;-38
2022/12/14 08:17:28;;;;;;;2.97;1.48;;;28.30;43.50;;;;;;5011237;28;20197;-39
2022/12/14 08:19:59;;;;;;;3.10;1.60;;;28.30;43.50;;;;;;5013773;28;20804;-39
2022/12/14 08:22:30;;;;;;;3.40;1.80;;;28.30;43.60;;;;;;5013541;28;20201;-38
2022/12/14 08:25:01;;;;;;;3.17;1.58;;;28.20;43.60;;;;;;5013259;28;20561;-38
2022/12/14 08:27:35;;;;;;;2.22;1.70;;;28.20;43.60;;;;;;5013816;28;20229;-38
2022/12/14 08:30:06;;;;;;;6.65;2.28;;;28.20;43.80;;;;;;5013089;28;20648;-38
2022/12/14 08:32:37;;;;;;;4.70;2.30;;;28.20;44.50;;;;;;5012951;28;20292;-38
2022/12/14 08:35:08;;;;;;;6.28;2.20;;;28.20;44.90;;;;;;5005383;28;20189;-38
2022/12/14 08:37:39;;;;;;;6.38;2.08;;;28.10;44.90;;;;;;5013763;28;20828;-38
2022/12/14 08:40:10;;;;;;;3.85;2.10;;;28.10;44.90;;;;;;5013812;28;20197;-39
2022/12/14 08:42:43;;;;;;;4.30;2.20;;;28.10;44.90;;;;;;5015321;28;20575;-38
2022/12/14 08:45:14;;;;;;;3.70;1.83;;;28.10;45.00;;;;;;5000946;28;20219;-39
2022/12/14 08:47:45;;;;;;;5.32;2.67;;;28.00;45.00;;;;;;5013245;28;20583;-38
2022/12/14 08:50:16;;;;;;;3.00;1.70;;;28.00;45.00;;;;;;5013735;28;20274;-38
2022/12/14 08:52:50;;;;;;;3.72;2.20;;;28.00;45.00;;;;;;5013032;28;20201;-38
2022/12/14 08:55:22;;;;;;;4.15;2.00;;;28.00;45.10;;;;;;5012540;28;20193;-38
2022/12/14 08:57:54;;;;;;;2.20;1.42;;;27.90;45.00;;;;;;5014357;28;20276;-38
2022/12/14 09:00:25;;;;;;;3.72;2.00;;;27.90;45.10;;;;;;5012204;28;20899;-41
2022/12/14 09:02:57;;;;;;;4.05;1.88;;;27.90;45.10;;;;;;5013445;28;20205;-38
2022/12/14 09:05:27;;;;;;;4.72;1.95;;;27.90;45.10;;;;;;5012630;28;20687;-38
2022/12/14 09:07:59;;;;;;;4.30;2.15;;;27.90;45.10;;;;;;5012483;28;20723;-39
2022/12/14 09:10:30;;;;;;;3.53;1.95;;;27.80;45.00;;;;;;5011987;28;20664;-38
2022/12/14 09:13:02;;;;;;;4.32;1.98;;;27.80;45.00;;;;;;5013169;28;20203;-38
2022/12/14 09:15:33;;;;;;;4.88;2.00;;;27.80;45.00;;;;;;5012629;28;20215;-39
2022/12/14 09:18:04;;;;;;;4.90;2.00;;;27.80;45.10;;;;;;5012135;28;20204;-38
2022/12/14 09:20:34;;;;;;;3.63;1.90;;;27.80;45.10;;;;;;5012345;28;20199;-38
2022/12/14 09:23:05;;;;;;;3.30;1.98;;;27.70;45.00;;;;;;5012844;28;20204;-38
2022/12/14 09:25:36;;;;;;;2.97;1.77;;;27.70;45.00;;;;;;5011653;28;20711;-39
2022/12/14 09:28:08;;;;;;;3.65;2.17;;;27.70;45.00;;;;;;5012427;28;20233;-38
2022/12/14 09:30:39;;;;;;;3.67;2.10;;;27.60;45.10;;;;;;5012306;28;20668;-38
2022/12/14 09:33:10;;;;;;;5.00;1.70;;;27.60;45.10;;;;;;5012882;28;20219;-39
2022/12/14 09:35:41;;;;;;;3.13;1.90;;;27.60;45.10;;;;;;5012179;28;20204;-38
2022/12/14 09:38:19;;;;;;;4.13;2.42;;;27.60;45.80;;;;;;5011644;28;20212;-42
2022/12/14 09:40:56;;;;;;;4.63;2.30;;;27.60;45.10;;;;;;5012446;28;20189;-38
2022/12/14 09:43:39;;;;;;;4.40;2.00;;;27.60;45.20;;;;;;5012217;28;20682;-39
2022/12/14 09:46:24;;;;;;;3.25;1.70;;;27.50;45.10;;;;;;5012363;28;20216;-40
2022/12/14 09:48:56;;;;;;;2.53;1.80;;;27.50;45.20;;;;;;5012051;28;20240;-38
2022/12/14 09:51:33;;;;;;;2.40;1.63;;;27.50;45.20;;;;;;5011168;28;20201;-39
2022/12/14 09:54:08;;;;;;;2.38;1.73;;;27.50;45.20;;;;;;4991646;28;20193;-39
2022/12/14 09:56:40;;;;;;;3.65;2.00;;;27.40;45.20;;;;;;5005930;28;20212;-38
2022/12/14 09:59:19;;;;;;;4.22;2.08;;;27.40;45.20;;;;;;5011323;28;20205;-38
2022/12/14 10:01:57;;;;;;;2.95;1.65;;;27.40;45.30;;;;;;5011857;28;20192;-38
2022/12/14 10:04:41;;;;;;;3.38;1.77;;;27.30;45.20;;;;;;5011651;28;20201;-39
2022/12/14 10:07:19;;;;;;;4.07;1.83;;;27.30;45.20;;;;;;5012284;28;20220;-39
2022/12/14 10:09:56;;;;;;;2.97;1.88;;;27.30;45.20;;;;;;5011223;28;20192;-38
2022/12/14 10:12:41;;;;;;;2.53;1.75;;;27.30;45.30;;;;;;4991351;28;20544;-38
2022/12/14 10:15:26;;;;;;;3.20;1.90;;;27.30;45.40;;;;;;4992996;28;20855;-38
2022/12/14 10:18:31;;;;;;;2.42;1.73;;;27.20;45.40;;;;;;5011714;28;20284;-38
2022/12/14 10:21:07;;;;;;;2.50;1.70;;;27.20;45.40;;;;;;5011192;28;20200;-38
2022/12/14 10:23:41;;;;;;;4.10;1.98;;;27.20;45.40;;;;;;5011251;28;20197;-38
2022/12/14 10:26:20;;;;;;;2.40;1.70;;;27.20;45.40;;;;;;5003074;28;20217;-38
2022/12/14 10:28:57;;;;;;;2.53;2.03;;;27.10;45.40;;;;;;4992069;28;20229;-42
2022/12/14 10:31:37;;;;;;;3.08;2.05;;;27.10;45.40;;;;;;5008594;28;20203;-38
2022/12/14 10:34:19;;;;;;;3.25;1.95;;;27.10;45.40;;;;;;5011079;28;20201;-38
2022/12/14 10:36:56;;;;;;;3.10;1.83;;;27.10;45.40;;;;;;5012273;28;20225;-39
2022/12/14 10:39:41;;;;;;;2.33;1.88;;;27.10;45.40;;;;;;5011784;28;20211;-38
2022/12/14 10:42:18;;;;;;;2.63;2.05;;;27.00;45.40;;;;;;5011232;28;20200;-38
2022/12/14 10:44:57;;;;;;;3.92;2.00;;;27.00;45.50;;;;;;5010852;28;20197;-38
2022/12/14 10:47:36;;;;;;;3.60;1.95;;;27.00;45.50;;;;;;5011519;28;20216;-38
2022/12/14 10:50:19;;;;;;;3.85;2.10;;;26.90;45.50;;;;;;5010633;28;20205;-38
2022/12/14 10:52:54;;;;;;;2.97;2.15;;;26.90;45.60;;;;;;5001576;28;20250;-38
2022/12/14 10:55:29;;;;;;;3.22;2.00;;;26.90;45.60;;;;;;5013205;28;20330;-39
2022/12/14 10:58:01;;;;;;;3.20;1.70;;;26.90;45.60;;;;;;5010867;28;20208;-38
2022/12/14 11:00:32;;;;;;;2.83;2.03;;;26.90;45.70;;;;;;5011141;28;20637;-38
2022/12/14 11:03:08;;;;;;;2.75;1.92;;;26.90;45.70;;;;;;5011578;28;20193;-38
2022/12/14 11:05:42;;;;;;;3.00;1.83;;;26.80;45.60;;;;;;5010445;28;20220;-38
2022/12/14 11:08:32;;;;;;;2.30;1.80;;;26.80;45.60;;;;;;5010953;28;20251;-39
2022/12/14 11:11:11;;;;;;;3.42;1.77;;;26.80;45.70;;;;;;5011051;28;20281;-38
2022/12/14 11:13:48;;;;;;;3.55;1.88;;;26.80;45.70;;;;;;5011492;28;20192;-38
2022/12/14 11:16:28;;;;;;;3.13;1.80;;;26.80;45.70;;;;;;5010418;28;20216;-39
2022/12/14 11:19:06;;;;;;;3.70;1.73;;;26.70;45.70;;;;;;5011195;28;20239;-40
2022/12/14 11:21:37;;;;;;;3.53;2.10;;;26.70;45.80;;;;;;5010475;28;20570;-39
2022/12/14 11:24:18;;;;;;;3.58;2.22;;;26.70;45.90;;;;;;4990426;28;20602;-38
2022/12/14 11:26:49;;;;;;;2.38;1.70;;;26.70;45.90;;;;;;5001855;28;20217;-38
2022/12/14 11:29:23;;;;;;;4.18;2.42;;;26.70;45.90;;;;;;5010614;28;20228;-39
2022/12/14 11:31:54;;;;;;;3.97;2.00;;;26.60;45.80;;;;;;5009714;28;20204;-38
2022/12/14 11:34:32;;;;;;;2.83;1.80;;;26.60;45.90;;;;;;5009480;28;20566;-37
2022/12/14 11:37:16;;;;;;;2.95;1.80;;;26.60;45.90;;;;;;5008281;28;20220;-38
2022/12/14 11:39:53;;;;;;;3.83;2.33;;;26.60;45.90;;;;;;5008772;28;20192;-41
2022/12/14 11:42:24;;;;;;;3.08;1.70;;;26.50;45.90;;;;;;5009554;28;20188;-41
2022/12/14 11:44:56;;;;;;;3.47;2.15;;;26.50;45.90;;;;;;5007102;28;20184;-38
2022/12/14 11:47:27;;;;;;;3.75;1.90;;;26.50;46.00;;;;;;5009476;28;20221;-39
2022/12/14 11:50:00;;;;;;;3.28;2.05;;;26.50;46.00;;;;;;5008976;28;20312;-39
2022/12/14 11:52:43;;;;;;;3.60;2.00;;;26.50;46.00;;;;;;5009452;28;20196;-38
2022/12/14 11:55:17;;;;;;;3.60;2.10;;;26.50;46.00;;;;;;5006790;28;20196;-38
2022/12/14 11:57:52;;;;;;;4.22;2.40;;;26.50;46.10;;;;;;5009354;28;20570;-38
2022/12/14 12:00:28;;;;;;;3.05;1.90;;;26.40;46.10;;;;;;5009310;28;20192;-38
2022/12/14 12:03:05;;;;;;;3.20;2.13;;;26.40;46.20;;;;;;5008084;28;20199;-38
2022/12/14 12:05:43;;;;;;;3.78;1.92;;;26.40;46.10;;;;;;5007636;28;20248;-38
2022/12/14 12:08:25;;;;;;;3.15;2.00;;;26.40;46.20;;;;;;5007496;28;20286;-38
2022/12/14 12:10:58;;;;;;;3.42;2.05;;;26.40;46.20;;;;;;5007334;28;20554;-38
2022/12/14 12:13:33;;;;;;;3.40;1.77;;;26.40;46.20;;;;;;5006560;28;20189;-38
2022/12/14 12:16:06;;;;;;;3.75;2.08;;;26.30;46.10;;;;;;5009152;28;20217;-38
2022/12/14 12:18:40;;;;;;;4.28;2.05;;;26.30;46.20;;;;;;5007475;28;20203;-39
2022/12/14 12:21:18;;;;;;;2.22;1.90;;;26.30;46.20;;;;;;5006902;28;20192;-39
2022/12/14 12:23:54;;;;;;;4.07;2.00;;;26.30;46.20;;;;;;5007317;28;20197;-38
2022/12/14 12:26:29;;;;;;;3.03;2.22;;;26.30;46.30;;;;;;5009357;28;20626;-38
2022/12/14 12:29:06;;;;;;;2.40;1.83;;;26.30;46.30;;;;;;5009619;28;20219;-39
2022/12/14 12:31:42;;;;;;;3.80;2.17;;;26.20;46.30;;;;;;5026721;28;20207;-38
2022/12/14 12:34:16;;;;;;;3.10;1.90;;;26.20;46.30;;;;;;5033347;28;20206;-43
2022/12/14 12:36:49;;;;;;;4.28;2.22;;;26.20;46.40;;;;;;5033630;28;20216;-38
2022/12/14 12:39:25;;;;;;;4.20;1.88;;;26.20;46.40;;;;;;5034331;28;20201;-38
2022/12/14 12:42:17;;;;;;;4.13;1.95;;;26.20;46.40;;;;;;5033739;28;20207;-40
2022/12/14 12:44:54;;;;;;;4.07;1.90;;;26.20;46.40;;;;;;5023033;28;20712;-38
2022/12/14 12:47:31;;;;;;;4.35;2.00;;;26.20;46.40;;;;;;5014358;28;20227;-41
2022/12/14 12:50:05;;;;;;;4.78;2.13;;;26.10;46.40;;;;;;5013943;28;20231;-38
2022/12/14 12:52:44;;;;;;;3.05;2.15;;;26.10;46.40;;;;;;5013799;28;20201;-38
2022/12/14 12:55:19;;;;;;;3.40;2.00;;;26.10;46.40;;;;;;5030669;28;20222;-38
2022/12/14 12:57:53;;;;;;;3.25;1.90;;;26.10;46.50;;;;;;5033409;28;20195;-40
2022/12/14 13:00:25;;;;;;;4.38;2.15;;;26.10;46.50;;;;;;5033600;28;20656;-38
2022/12/14 13:03:00;;;;;;;3.63;2.35;;;26.00;46.50;;;;;;5033686;28;20192;-40
2022/12/14 13:05:34;;;;;;;3.20;1.58;;;26.00;46.60;;;;;;5033331;28;20330;-38
2022/12/14 13:08:09;;;;;;;4.10;1.90;;;26.00;46.50;;;;;;5033333;28;20199;-38
2022/12/14 13:10:43;;;;;;;4.13;2.00;;;26.00;46.60;;;;;;5033022;28;20200;-38
2022/12/14 13:13:18;;;;;;;3.65;2.20;;;26.00;46.70;;;;;;5033048;28;20660;-38
2022/12/14 13:15:52;;;;;;;4.28;2.25;;;25.90;46.60;;;;;;5032892;28;20226;-38
2022/12/14 13:18:27;;;;;;;4.40;2.28;;;25.90;46.60;;;;;;5033076;28;20193;-38
2022/12/14 13:20:58;;;;;;;4.43;2.08;;;25.90;46.60;;;;;;5033055;28;20200;-38
2022/12/14 13:23:31;;;;;;;3.58;2.30;;;25.90;47.20;;;;;;5017848;28;20201;-38
2022/12/14 13:26:18;;;;;;;3.95;2.13;;;25.90;46.60;;;;;;5013143;28;20224;-40
2022/12/14 13:28:59;;;;;;;3.20;2.00;;;25.90;46.60;;;;;;5013383;28;20235;-38
2022/12/14 13:31:38;;;;;;;3.70;1.90;;;25.90;46.70;;;;;;5013470;28;20201;-39
2022/12/14 13:34:28;;;;;;;3.65;1.83;;;25.90;46.70;;;;;;5013306;28;20208;-39
2022/12/14 13:37:23;;;;;;;2.60;1.80;;;25.80;46.70;;;;;;5013212;28;20228;-38
2022/12/14 13:40:29;;;;;;;5.32;2.22;;;25.80;46.70;;;;;;5022798;28;20534;-38